Fort Bragg AAF, North Carolina
Current Conditions -  °F | °C
As of 6:58 AM on Thursday 18 Dec 2014 (Local Time) from KFBG Reporting Station
Scattered Clouds Scattered Clouds  
Wind Chill: 38°   Ceiling: Unl
Heat Index: 38°   Visibility: 10mi
Dew Point: 31°   Wind: 3mph
Humidity: 76%   Direction: 350°N
Pressure: 30.15"   Gusts: NA
Location:  35.13°N, 78.93°W
Report Text: KFBG 181158Z AUTO 35003KT 10SM SCT170 04/00 A3015 RMK AO2 SLP214 T00351004 10047 20025 52017 $
Loading
Personal Weather Stations






























Interactive Weather Map New forecast layout! Learn more

10-Day Weather Forecast

Advertisements
Track Severe Weather on mobile